sensor_id;sensor_type;location;lat;lon;timestamp;P1;durP1;ratioP1;P2;durP2;ratioP2
17175;SDS011;8703;48.996;9.594;2023-03-03T00:01:17;20.40;;;10.57;;
17175;SDS011;8703;48.996;9.594;2023-03-03T00:03:45;22.37;;;11.07;;
17175;SDS011;8703;48.996;9.594;2023-03-03T00:06:13;23.00;;;10.67;;
17175;SDS011;8703;48.996;9.594;2023-03-03T00:08:40;18.23;;;9.27;;
17175;SDS011;8703;48.996;9.594;2023-03-03T00:11:09;26.00;;;11.33;;
17175;SDS011;8703;48.996;9.594;2023-03-03T00:13:40;18.70;;;9.77;;
17175;SDS011;8703;48.996;9.594;2023-03-03T00:16:13;21.77;;;10.67;;
17175;SDS011;8703;48.996;9.594;2023-03-03T00:18:43;22.40;;;10.53;;
17175;SDS011;8703;48.996;9.594;2023-03-03T00:21:25;22.20;;;10.93;;
17175;SDS011;8703;48.996;9.594;2023-03-03T00:23:54;24.97;;;11.33;;
17175;SDS011;8703;48.996;9.594;2023-03-03T00:26:38;25.63;;;10.67;;
17175;SDS011;8703;48.996;9.594;2023-03-03T00:29:21;22.47;;;10.97;;
17175;SDS011;8703;48.996;9.594;2023-03-03T00:31:55;25.97;;;11.83;;
17175;SDS011;8703;48.996;9.594;2023-03-03T00:34:41;21.07;;;11.37;;
17175;SDS011;8703;48.996;9.594;2023-03-03T00:37:15;21.93;;;11.23;;
17175;SDS011;8703;48.996;9.594;2023-03-03T00:39:57;25.53;;;11.30;;
17175;SDS011;8703;48.996;9.594;2023-03-03T00:42:46;26.37;;;11.63;;
17175;SDS011;8703;48.996;9.594;2023-03-03T00:45:17;23.30;;;11.73;;
17175;SDS011;8703;48.996;9.594;2023-03-03T00:47:49;27.07;;;12.03;;
17175;SDS011;8703;48.996;9.594;2023-03-03T00:50:27;24.73;;;11.60;;
17175;SDS011;8703;48.996;9.594;2023-03-03T00:53:03;24.90;;;12.40;;
17175;SDS011;8703;48.996;9.594;2023-03-03T00:55:33;24.87;;;12.13;;
17175;SDS011;8703;48.996;9.594;2023-03-03T00:58:02;22.83;;;11.57;;
17175;SDS011;8703;48.996;9.594;2023-03-03T01:00:30;21.80;;;11.50;;
17175;SDS011;8703;48.996;9.594;2023-03-03T01:02:58;23.30;;;11.47;;
17175;SDS011;8703;48.996;9.594;2023-03-03T01:05:27;25.50;;;11.53;;
17175;SDS011;8703;48.996;9.594;2023-03-03T01:07:55;27.10;;;12.17;;
17175;SDS011;8703;48.996;9.594;2023-03-03T01:10:22;24.30;;;12.17;;
17175;SDS011;8703;48.996;9.594;2023-03-03T01:12:50;28.87;;;13.10;;
17175;SDS011;8703;48.996;9.594;2023-03-03T01:15:18;23.33;;;12.60;;
17175;SDS011;8703;48.996;9.594;2023-03-03T01:17:46;25.90;;;13.30;;
17175;SDS011;8703;48.996;9.594;2023-03-03T01:20:14;27.00;;;12.83;;
17175;SDS011;8703;48.996;9.594;2023-03-03T01:22:41;29.47;;;13.73;;
17175;SDS011;8703;48.996;9.594;2023-03-03T01:25:09;26.77;;;13.17;;
17175;SDS011;8703;48.996;9.594;2023-03-03T01:27:37;53.60;;;23.50;;
17175;SDS011;8703;48.996;9.594;2023-03-03T01:30:05;31.00;;;14.50;;
17175;SDS011;8703;48.996;9.594;2023-03-03T01:32:34;33.77;;;16.20;;
17175;SDS011;8703;48.996;9.594;2023-03-03T01:35:02;32.27;;;14.80;;
17175;SDS011;8703;48.996;9.594;2023-03-03T01:37:29;29.73;;;14.40;;
17175;SDS011;8703;48.996;9.594;2023-03-03T01:39:58;28.03;;;13.50;;
17175;SDS011;8703;48.996;9.594;2023-03-03T01:42:26;26.23;;;13.20;;
17175;SDS011;8703;48.996;9.594;2023-03-03T01:47:46;27.57;;;13.60;;
17175;SDS011;8703;48.996;9.594;2023-03-03T01:50:19;26.43;;;13.37;;
17175;SDS011;8703;48.996;9.594;2023-03-03T01:52:56;29.13;;;14.13;;
17175;SDS011;8703;48.996;9.594;2023-03-03T01:55:27;30.13;;;13.87;;
17175;SDS011;8703;48.996;9.594;2023-03-03T01:57:56;25.77;;;13.13;;
17175;SDS011;8703;48.996;9.594;2023-03-03T02:00:26;24.67;;;12.83;;
17175;SDS011;8703;48.996;9.594;2023-03-03T02:02:56;28.50;;;12.67;;
17175;SDS011;8703;48.996;9.594;2023-03-03T02:05:23;27.40;;;13.90;;
17175;SDS011;8703;48.996;9.594;2023-03-03T02:07:51;32.27;;;15.03;;
17175;SDS011;8703;48.996;9.594;2023-03-03T02:10:19;26.13;;;13.27;;
17175;SDS011;8703;48.996;9.594;2023-03-03T02:12:48;28.80;;;13.57;;
17175;SDS011;8703;48.996;9.594;2023-03-03T02:15:18;31.70;;;14.47;;
17175;SDS011;8703;48.996;9.594;2023-03-03T02:17:46;29.03;;;13.63;;
17175;SDS011;8703;48.996;9.594;2023-03-03T02:20:17;27.13;;;13.97;;
17175;SDS011;8703;48.996;9.594;2023-03-03T02:22:54;30.70;;;14.23;;
17175;SDS011;8703;48.996;9.594;2023-03-03T02:25:26;31.10;;;14.60;;
17175;SDS011;8703;48.996;9.594;2023-03-03T02:27:57;36.93;;;15.77;;
17175;SDS011;8703;48.996;9.594;2023-03-03T02:30:25;34.60;;;15.37;;
17175;SDS011;8703;48.996;9.594;2023-03-03T02:32:52;28.83;;;14.13;;
17175;SDS011;8703;48.996;9.594;2023-03-03T02:35:27;26.20;;;13.77;;
17175;SDS011;8703;48.996;9.594;2023-03-03T02:37:56;30.53;;;13.80;;
17175;SDS011;8703;48.996;9.594;2023-03-03T02:40:28;31.93;;;13.43;;
17175;SDS011;8703;48.996;9.594;2023-03-03T02:42:59;32.80;;;15.23;;
17175;SDS011;8703;48.996;9.594;2023-03-03T02:45:27;30.27;;;14.27;;
17175;SDS011;8703;48.996;9.594;2023-03-03T02:47:54;30.53;;;13.83;;
17175;SDS011;8703;48.996;9.594;2023-03-03T02:50:22;31.67;;;13.37;;
17175;SDS011;8703;48.996;9.594;2023-03-03T02:52:49;33.03;;;13.90;;
17175;SDS011;8703;48.996;9.594;2023-03-03T02:55:16;30.77;;;14.27;;
17175;SDS011;8703;48.996;9.594;2023-03-03T02:57:44;28.23;;;14.17;;
17175;SDS011;8703;48.996;9.594;2023-03-03T03:00:13;27.90;;;13.47;;
17175;SDS011;8703;48.996;9.594;2023-03-03T03:02:40;28.97;;;13.40;;
17175;SDS011;8703;48.996;9.594;2023-03-03T03:05:08;31.73;;;14.37;;
17175;SDS011;8703;48.996;9.594;2023-03-03T03:07:35;33.83;;;14.67;;
17175;SDS011;8703;48.996;9.594;2023-03-03T03:10:03;32.13;;;14.90;;
17175;SDS011;8703;48.996;9.594;2023-03-03T03:12:30;33.67;;;14.67;;
17175;SDS011;8703;48.996;9.594;2023-03-03T03:14:58;29.90;;;13.57;;
17175;SDS011;8703;48.996;9.594;2023-03-03T03:17:26;32.90;;;15.07;;
17175;SDS011;8703;48.996;9.594;2023-03-03T03:19:54;29.57;;;14.37;;
17175;SDS011;8703;48.996;9.594;2023-03-03T03:22:21;30.30;;;15.13;;
17175;SDS011;8703;48.996;9.594;2023-03-03T03:24:49;29.73;;;14.73;;
17175;SDS011;8703;48.996;9.594;2023-03-03T03:27:16;30.97;;;14.87;;
17175;SDS011;8703;48.996;9.594;2023-03-03T03:29:44;32.77;;;15.00;;
17175;SDS011;8703;48.996;9.594;2023-03-03T03:32:11;27.80;;;14.23;;
17175;SDS011;8703;48.996;9.594;2023-03-03T03:34:40;34.90;;;14.90;;
17175;SDS011;8703;48.996;9.594;2023-03-03T03:37:07;30.13;;;14.00;;
17175;SDS011;8703;48.996;9.594;2023-03-03T03:39:35;28.13;;;13.67;;
17175;SDS011;8703;48.996;9.594;2023-03-03T03:42:02;29.80;;;13.43;;
17175;SDS011;8703;48.996;9.594;2023-03-03T03:44:29;29.47;;;13.37;;
17175;SDS011;8703;48.996;9.594;2023-03-03T03:46:57;31.17;;;13.70;;
17175;SDS011;8703;48.996;9.594;2023-03-03T03:49:24;28.87;;;13.37;;
17175;SDS011;8703;48.996;9.594;2023-03-03T03:51:53;27.80;;;14.23;;
17175;SDS011;8703;48.996;9.594;2023-03-03T03:54:20;31.40;;;14.70;;
17175;SDS011;8703;48.996;9.594;2023-03-03T03:56:48;28.97;;;14.27;;
17175;SDS011;8703;48.996;9.594;2023-03-03T03:59:15;32.33;;;14.80;;
17175;SDS011;8703;48.996;9.594;2023-03-03T04:01:42;30.20;;;14.27;;
17175;SDS011;8703;48.996;9.594;2023-03-03T04:04:10;27.43;;;14.20;;
17175;SDS011;8703;48.996;9.594;2023-03-03T04:06:37;30.50;;;14.03;;
17175;SDS011;8703;48.996;9.594;2023-03-03T04:09:06;29.27;;;14.03;;
17175;SDS011;8703;48.996;9.594;2023-03-03T04:11:33;24.70;;;12.83;;
17175;SDS011;8703;48.996;9.594;2023-03-03T04:14:00;31.27;;;14.60;;
17175;SDS011;8703;48.996;9.594;2023-03-03T04:16:28;27.13;;;12.97;;
17175;SDS011;8703;48.996;9.594;2023-03-03T04:18:55;27.53;;;13.97;;
17175;SDS011;8703;48.996;9.594;2023-03-03T04:21:23;31.83;;;13.93;;
17175;SDS011;8703;48.996;9.594;2023-03-03T04:23:50;31.83;;;14.23;;
17175;SDS011;8703;48.996;9.594;2023-03-03T04:26:19;29.17;;;14.20;;
17175;SDS011;8703;48.996;9.594;2023-03-03T04:28:46;31.07;;;14.97;;
17175;SDS011;8703;48.996;9.594;2023-03-03T04:31:13;29.77;;;15.23;;
17175;SDS011;8703;48.996;9.594;2023-03-03T04:33:41;37.47;;;17.33;;
17175;SDS011;8703;48.996;9.594;2023-03-03T04:36:08;40.67;;;18.43;;
17175;SDS011;8703;48.996;9.594;2023-03-03T04:38:36;40.33;;;17.57;;
17175;SDS011;8703;48.996;9.594;2023-03-03T04:41:03;42.23;;;18.80;;
17175;SDS011;8703;48.996;9.594;2023-03-03T04:43:32;35.90;;;17.80;;
17175;SDS011;8703;48.996;9.594;2023-03-03T04:45:59;34.93;;;17.27;;
17175;SDS011;8703;48.996;9.594;2023-03-03T04:48:27;33.00;;;16.93;;
17175;SDS011;8703;48.996;9.594;2023-03-03T04:50:54;37.20;;;16.83;;
17175;SDS011;8703;48.996;9.594;2023-03-03T04:53:21;36.63;;;15.30;;
17175;SDS011;8703;48.996;9.594;2023-03-03T04:55:49;34.87;;;16.57;;
17175;SDS011;8703;48.996;9.594;2023-03-03T04:58:17;34.93;;;14.97;;
17175;SDS011;8703;48.996;9.594;2023-03-03T05:00:46;30.57;;;14.90;;
17175;SDS011;8703;48.996;9.594;2023-03-03T05:03:13;30.50;;;14.30;;
17175;SDS011;8703;48.996;9.594;2023-03-03T05:05:41;28.47;;;14.50;;
17175;SDS011;8703;48.996;9.594;2023-03-03T05:08:08;31.33;;;15.30;;
17175;SDS011;8703;48.996;9.594;2023-03-03T05:10:35;29.57;;;14.93;;
17175;SDS011;8703;48.996;9.594;2023-03-03T05:13:03;28.93;;;13.70;;
17175;SDS011;8703;48.996;9.594;2023-03-03T05:15:31;33.30;;;15.00;;
17175;SDS011;8703;48.996;9.594;2023-03-03T05:18:00;29.67;;;14.07;;
17175;SDS011;8703;48.996;9.594;2023-03-03T05:20:28;31.63;;;14.47;;
17175;SDS011;8703;48.996;9.594;2023-03-03T05:22:55;30.93;;;14.23;;
17175;SDS011;8703;48.996;9.594;2023-03-03T05:25:25;28.90;;;14.13;;
17175;SDS011;8703;48.996;9.594;2023-03-03T05:27:52;29.50;;;13.83;;
17175;SDS011;8703;48.996;9.594;2023-03-03T05:30:20;28.87;;;13.37;;
17175;SDS011;8703;48.996;9.594;2023-03-03T05:32:47;31.23;;;14.43;;
17175;SDS011;8703;48.996;9.594;2023-03-03T05:35:16;31.07;;;14.20;;
17175;SDS011;8703;48.996;9.594;2023-03-03T05:37:44;37.63;;;15.13;;
17175;SDS011;8703;48.996;9.594;2023-03-03T05:40:13;32.53;;;15.00;;
17175;SDS011;8703;48.996;9.594;2023-03-03T05:42:41;31.70;;;15.00;;
17175;SDS011;8703;48.996;9.594;2023-03-03T05:45:09;28.70;;;14.00;;
17175;SDS011;8703;48.996;9.594;2023-03-03T05:47:36;32.63;;;14.83;;
17175;SDS011;8703;48.996;9.594;2023-03-03T05:50:04;26.43;;;13.70;;
17175;SDS011;8703;48.996;9.594;2023-03-03T05:52:33;38.00;;;14.90;;
17175;SDS011;8703;48.996;9.594;2023-03-03T05:55:00;30.50;;;14.37;;
17175;SDS011;8703;48.996;9.594;2023-03-03T05:57:27;29.07;;;14.20;;
17175;SDS011;8703;48.996;9.594;2023-03-03T05:59:55;27.47;;;13.77;;
17175;SDS011;8703;48.996;9.594;2023-03-03T06:02:22;30.87;;;14.20;;
17175;SDS011;8703;48.996;9.594;2023-03-03T06:04:50;29.07;;;13.90;;
17175;SDS011;8703;48.996;9.594;2023-03-03T06:07:17;31.63;;;14.30;;
17175;SDS011;8703;48.996;9.594;2023-03-03T06:09:46;34.77;;;17.13;;
17175;SDS011;8703;48.996;9.594;2023-03-03T06:12:13;34.07;;;14.60;;
17175;SDS011;8703;48.996;9.594;2023-03-03T06:14:41;33.60;;;14.60;;
17175;SDS011;8703;48.996;9.594;2023-03-03T06:26:29;33.20;;;14.53;;
17175;SDS011;8703;48.996;9.594;2023-03-03T06:28:57;31.53;;;14.47;;
17175;SDS011;8703;48.996;9.594;2023-03-03T06:31:25;29.37;;;13.83;;
17175;SDS011;8703;48.996;9.594;2023-03-03T06:33:53;30.60;;;14.77;;
17175;SDS011;8703;48.996;9.594;2023-03-03T06:36:20;30.70;;;14.07;;
17175;SDS011;8703;48.996;9.594;2023-03-03T06:38:49;32.70;;;15.13;;
17175;SDS011;8703;48.996;9.594;2023-03-03T06:41:16;31.63;;;14.53;;
17175;SDS011;8703;48.996;9.594;2023-03-03T06:43:45;32.80;;;15.60;;
17175;SDS011;8703;48.996;9.594;2023-03-03T06:46:12;45.10;;;20.47;;
17175;SDS011;8703;48.996;9.594;2023-03-03T06:48:41;97.50;;;37.23;;
17175;SDS011;8703;48.996;9.594;2023-03-03T06:51:14;59.63;;;24.77;;
17175;SDS011;8703;48.996;9.594;2023-03-03T06:53:47;54.20;;;23.77;;
17175;SDS011;8703;48.996;9.594;2023-03-03T06:56:15;57.00;;;24.77;;
17175;SDS011;8703;48.996;9.594;2023-03-03T06:58:43;44.67;;;21.30;;
17175;SDS011;8703;48.996;9.594;2023-03-03T07:01:14;40.77;;;18.47;;
17175;SDS011;8703;48.996;9.594;2023-03-03T07:03:42;35.30;;;15.77;;
17175;SDS011;8703;48.996;9.594;2023-03-03T07:06:14;34.33;;;16.33;;
17175;SDS011;8703;48.996;9.594;2023-03-03T07:08:46;35.10;;;15.57;;
17175;SDS011;8703;48.996;9.594;2023-03-03T07:11:15;31.40;;;14.33;;
17175;SDS011;8703;48.996;9.594;2023-03-03T07:13:46;31.10;;;15.47;;
17175;SDS011;8703;48.996;9.594;2023-03-03T07:16:15;32.80;;;15.47;;
17175;SDS011;8703;48.996;9.594;2023-03-03T07:18:46;31.57;;;15.90;;
17175;SDS011;8703;48.996;9.594;2023-03-03T07:21:16;34.37;;;17.23;;
17175;SDS011;8703;48.996;9.594;2023-03-03T07:23:45;35.13;;;17.27;;
17175;SDS011;8703;48.996;9.594;2023-03-03T07:26:14;34.30;;;16.53;;
17175;SDS011;8703;48.996;9.594;2023-03-03T07:28:43;47.07;;;21.57;;
17175;SDS011;8703;48.996;9.594;2023-03-03T07:31:16;58.13;;;25.23;;
17175;SDS011;8703;48.996;9.594;2023-03-03T07:33:54;38.47;;;18.33;;
17175;SDS011;8703;48.996;9.594;2023-03-03T07:36:24;36.80;;;18.70;;
17175;SDS011;8703;48.996;9.594;2023-03-03T07:38:53;35.93;;;18.40;;
17175;SDS011;8703;48.996;9.594;2023-03-03T07:41:22;39.90;;;18.77;;
17175;SDS011;8703;48.996;9.594;2023-03-03T07:43:52;35.17;;;17.33;;
17175;SDS011;8703;48.996;9.594;2023-03-03T07:46:27;42.50;;;18.07;;
17175;SDS011;8703;48.996;9.594;2023-03-03T07:48:56;44.30;;;19.63;;
17175;SDS011;8703;48.996;9.594;2023-03-03T07:51:25;40.93;;;20.33;;
17175;SDS011;8703;48.996;9.594;2023-03-03T07:53:53;46.37;;;22.27;;
17175;SDS011;8703;48.996;9.594;2023-03-03T07:56:27;45.60;;;21.73;;
17175;SDS011;8703;48.996;9.594;2023-03-03T07:58:59;42.43;;;21.43;;
17175;SDS011;8703;48.996;9.594;2023-03-03T08:01:35;44.70;;;21.30;;
17175;SDS011;8703;48.996;9.594;2023-03-03T08:04:15;44.90;;;20.43;;
17175;SDS011;8703;48.996;9.594;2023-03-03T08:06:48;42.73;;;20.23;;
17175;SDS011;8703;48.996;9.594;2023-03-03T08:09:36;47.73;;;22.33;;
17175;SDS011;8703;48.996;9.594;2023-03-03T08:12:26;38.40;;;18.03;;
17175;SDS011;8703;48.996;9.594;2023-03-03T08:15:23;37.67;;;18.60;;
17175;SDS011;8703;48.996;9.594;2023-03-03T08:17:52;43.27;;;18.67;;
17175;SDS011;8703;48.996;9.594;2023-03-03T08:23:13;43.63;;;20.17;;
17175;SDS011;8703;48.996;9.594;2023-03-03T08:25:42;42.30;;;20.00;;
17175;SDS011;8703;48.996;9.594;2023-03-03T08:28:09;43.97;;;19.97;;
17175;SDS011;8703;48.996;9.594;2023-03-03T08:30:39;40.50;;;20.07;;
17175;SDS011;8703;48.996;9.594;2023-03-03T08:33:07;40.30;;;19.40;;
17175;SDS011;8703;48.996;9.594;2023-03-03T08:35:34;41.83;;;21.10;;
17175;SDS011;8703;48.996;9.594;2023-03-03T08:38:01;48.43;;;21.60;;
17175;SDS011;8703;48.996;9.594;2023-03-03T08:40:30;44.67;;;22.33;;
17175;SDS011;8703;48.996;9.594;2023-03-03T08:42:57;41.90;;;20.80;;
17175;SDS011;8703;48.996;9.594;2023-03-03T08:45:25;46.23;;;22.43;;
17175;SDS011;8703;48.996;9.594;2023-03-03T08:47:54;46.07;;;21.37;;
17175;SDS011;8703;48.996;9.594;2023-03-03T08:50:24;48.23;;;22.83;;
17175;SDS011;8703;48.996;9.594;2023-03-03T08:52:51;47.53;;;22.80;;
17175;SDS011;8703;48.996;9.594;2023-03-03T08:55:18;43.80;;;20.53;;
17175;SDS011;8703;48.996;9.594;2023-03-03T08:57:46;38.63;;;19.73;;
17175;SDS011;8703;48.996;9.594;2023-03-03T09:00:14;42.57;;;20.63;;
17175;SDS011;8703;48.996;9.594;2023-03-03T09:02:43;43.17;;;20.93;;
17175;SDS011;8703;48.996;9.594;2023-03-03T09:05:12;39.40;;;19.60;;
17175;SDS011;8703;48.996;9.594;2023-03-03T09:07:39;40.83;;;20.23;;
17175;SDS011;8703;48.996;9.594;2023-03-03T09:10:07;42.80;;;21.10;;
17175;SDS011;8703;48.996;9.594;2023-03-03T09:12:37;45.93;;;20.00;;
17175;SDS011;8703;48.996;9.594;2023-03-03T09:17:48;37.60;;;19.70;;
17175;SDS011;8703;48.996;9.594;2023-03-03T09:23:24;37.73;;;19.27;;
17175;SDS011;8703;48.996;9.594;2023-03-03T09:25:57;40.10;;;18.73;;
17175;SDS011;8703;48.996;9.594;2023-03-03T09:28:36;35.83;;;18.33;;
17175;SDS011;8703;48.996;9.594;2023-03-03T09:31:05;31.87;;;16.83;;
17175;SDS011;8703;48.996;9.594;2023-03-03T09:33:47;32.47;;;16.67;;
17175;SDS011;8703;48.996;9.594;2023-03-03T09:36:19;28.73;;;16.77;;
17175;SDS011;8703;48.996;9.594;2023-03-03T09:38:52;30.43;;;16.07;;
17175;SDS011;8703;48.996;9.594;2023-03-03T10:08:43;23.83;;;13.43;;
17175;SDS011;8703;48.996;9.594;2023-03-03T10:15:02;24.13;;;12.67;;
17175;SDS011;8703;48.996;9.594;2023-03-03T10:17:47;23.87;;;12.83;;
17175;SDS011;8703;48.996;9.594;2023-03-03T10:20:24;23.37;;;12.07;;
17175;SDS011;8703;48.996;9.594;2023-03-03T10:23:00;25.13;;;13.10;;
17175;SDS011;8703;48.996;9.594;2023-03-03T10:25:37;20.60;;;12.30;;
17175;SDS011;8703;48.996;9.594;2023-03-03T10:28:19;22.73;;;13.10;;
17175;SDS011;8703;48.996;9.594;2023-03-03T10:30:57;19.17;;;12.10;;
17175;SDS011;8703;48.996;9.594;2023-03-03T10:33:33;22.47;;;13.53;;
17175;SDS011;8703;48.996;9.594;2023-03-03T10:36:10;19.33;;;11.87;;
17175;SDS011;8703;48.996;9.594;2023-03-03T10:38:51;24.90;;;13.43;;
17175;SDS011;8703;48.996;9.594;2023-03-03T10:41:30;22.87;;;13.07;;
17175;SDS011;8703;48.996;9.594;2023-03-03T10:44:12;22.97;;;12.90;;
17175;SDS011;8703;48.996;9.594;2023-03-03T10:46:56;23.03;;;11.90;;
17175;SDS011;8703;48.996;9.594;2023-03-03T10:49:32;27.17;;;12.80;;
17175;SDS011;8703;48.996;9.594;2023-03-03T10:52:14;21.53;;;12.07;;
17175;SDS011;8703;48.996;9.594;2023-03-03T10:54:55;26.07;;;15.37;;
17175;SDS011;8703;48.996;9.594;2023-03-03T10:57:33;26.80;;;13.50;;
17175;SDS011;8703;48.996;9.594;2023-03-03T11:00:08;26.47;;;14.87;;
17175;SDS011;8703;48.996;9.594;2023-03-03T11:02:52;20.67;;;12.53;;
17175;SDS011;8703;48.996;9.594;2023-03-03T11:05:36;24.20;;;13.50;;
17175;SDS011;8703;48.996;9.594;2023-03-03T11:08:08;27.57;;;15.10;;
17175;SDS011;8703;48.996;9.594;2023-03-03T11:10:43;24.03;;;14.63;;
17175;SDS011;8703;48.996;9.594;2023-03-03T11:13:20;28.13;;;13.93;;
17175;SDS011;8703;48.996;9.594;2023-03-03T11:16:00;24.67;;;13.63;;
17175;SDS011;8703;48.996;9.594;2023-03-03T11:18:52;25.77;;;13.80;;
17175;SDS011;8703;48.996;9.594;2023-03-03T11:21:28;22.70;;;13.93;;
17175;SDS011;8703;48.996;9.594;2023-03-03T11:26:53;23.63;;;13.03;;
17175;SDS011;8703;48.996;9.594;2023-03-03T11:29:40;23.97;;;13.77;;
17175;SDS011;8703;48.996;9.594;2023-03-03T11:32:19;23.40;;;12.93;;
17175;SDS011;8703;48.996;9.594;2023-03-03T11:34:57;21.60;;;13.10;;
17175;SDS011;8703;48.996;9.594;2023-03-03T11:37:34;23.50;;;13.73;;
17175;SDS011;8703;48.996;9.594;2023-03-03T11:40:08;26.13;;;14.33;;
17175;SDS011;8703;48.996;9.594;2023-03-03T11:42:42;25.60;;;14.07;;
17175;SDS011;8703;48.996;9.594;2023-03-03T11:45:17;25.17;;;15.70;;
17175;SDS011;8703;48.996;9.594;2023-03-03T11:47:47;29.23;;;16.20;;
17175;SDS011;8703;48.996;9.594;2023-03-03T11:50:19;25.37;;;15.53;;
17175;SDS011;8703;48.996;9.594;2023-03-03T11:52:49;27.00;;;15.40;;
17175;SDS011;8703;48.996;9.594;2023-03-03T11:55:21;29.43;;;17.60;;
17175;SDS011;8703;48.996;9.594;2023-03-03T11:57:52;24.63;;;16.33;;
17175;SDS011;8703;48.996;9.594;2023-03-03T12:00:27;30.53;;;18.33;;
17175;SDS011;8703;48.996;9.594;2023-03-03T12:03:07;28.77;;;17.87;;
17175;SDS011;8703;48.996;9.594;2023-03-03T12:05:45;25.27;;;16.70;;
17175;SDS011;8703;48.996;9.594;2023-03-03T12:08:19;25.63;;;17.13;;
17175;SDS011;8703;48.996;9.594;2023-03-03T12:11:06;28.50;;;18.20;;
17175;SDS011;8703;48.996;9.594;2023-03-03T12:13:39;25.10;;;16.90;;
17175;SDS011;8703;48.996;9.594;2023-03-03T12:16:18;25.87;;;16.90;;
17175;SDS011;8703;48.996;9.594;2023-03-03T12:18:57;25.00;;;16.77;;
17175;SDS011;8703;48.996;9.594;2023-03-03T12:21:33;24.33;;;16.40;;
17175;SDS011;8703;48.996;9.594;2023-03-03T12:24:12;29.43;;;17.63;;
17175;SDS011;8703;48.996;9.594;2023-03-03T12:27:05;26.20;;;17.33;;
17175;SDS011;8703;48.996;9.594;2023-03-03T12:29:39;24.90;;;16.47;;
17175;SDS011;8703;48.996;9.594;2023-03-03T12:32:14;26.30;;;16.97;;
17175;SDS011;8703;48.996;9.594;2023-03-03T12:34:50;27.50;;;17.40;;
17175;SDS011;8703;48.996;9.594;2023-03-03T12:37:22;24.80;;;16.90;;
17175;SDS011;8703;48.996;9.594;2023-03-03T12:40:01;24.53;;;17.20;;
17175;SDS011;8703;48.996;9.594;2023-03-03T12:42:36;26.30;;;16.47;;
17175;SDS011;8703;48.996;9.594;2023-03-03T12:45:17;27.97;;;18.80;;
17175;SDS011;8703;48.996;9.594;2023-03-03T12:47:52;26.97;;;17.00;;
17175;SDS011;8703;48.996;9.594;2023-03-03T12:50:26;25.83;;;17.23;;
17175;SDS011;8703;48.996;9.594;2023-03-03T12:53:02;25.13;;;16.93;;
17175;SDS011;8703;48.996;9.594;2023-03-03T12:55:36;25.63;;;17.50;;
17175;SDS011;8703;48.996;9.594;2023-03-03T12:58:11;26.33;;;17.40;;
17175;SDS011;8703;48.996;9.594;2023-03-03T13:00:48;28.00;;;18.70;;
17175;SDS011;8703;48.996;9.594;2023-03-03T13:03:25;28.50;;;17.60;;
17175;SDS011;8703;48.996;9.594;2023-03-03T13:05:59;26.73;;;17.33;;
17175;SDS011;8703;48.996;9.594;2023-03-03T13:08:35;27.37;;;18.40;;
17175;SDS011;8703;48.996;9.594;2023-03-03T13:11:19;27.37;;;18.10;;
17175;SDS011;8703;48.996;9.594;2023-03-03T13:13:55;25.10;;;17.50;;
17175;SDS011;8703;48.996;9.594;2023-03-03T13:16:27;25.57;;;17.33;;
17175;SDS011;8703;48.996;9.594;2023-03-03T13:18:59;32.40;;;18.80;;
17175;SDS011;8703;48.996;9.594;2023-03-03T13:21:29;26.87;;;17.83;;
17175;SDS011;8703;48.996;9.594;2023-03-03T13:24:01;27.83;;;18.10;;
17175;SDS011;8703;48.996;9.594;2023-03-03T13:26:39;25.43;;;18.43;;
17175;SDS011;8703;48.996;9.594;2023-03-03T13:29:11;24.63;;;17.23;;
17175;SDS011;8703;48.996;9.594;2023-03-03T13:31:45;27.77;;;19.00;;
17175;SDS011;8703;48.996;9.594;2023-03-03T13:34:19;28.33;;;18.27;;
17175;SDS011;8703;48.996;9.594;2023-03-03T13:36:52;27.60;;;18.73;;
17175;SDS011;8703;48.996;9.594;2023-03-03T13:39:24;24.93;;;18.00;;
17175;SDS011;8703;48.996;9.594;2023-03-03T13:41:54;26.87;;;18.03;;
17175;SDS011;8703;48.996;9.594;2023-03-03T13:44:26;29.97;;;19.37;;
17175;SDS011;8703;48.996;9.594;2023-03-03T13:47:02;27.07;;;18.50;;
17175;SDS011;8703;48.996;9.594;2023-03-03T13:49:38;30.80;;;18.80;;
17175;SDS011;8703;48.996;9.594;2023-03-03T13:52:18;26.30;;;19.27;;
17175;SDS011;8703;48.996;9.594;2023-03-03T13:54:51;28.77;;;20.27;;
17175;SDS011;8703;48.996;9.594;2023-03-03T13:57:30;27.93;;;19.90;;
17175;SDS011;8703;48.996;9.594;2023-03-03T14:00:05;29.23;;;19.83;;
17175;SDS011;8703;48.996;9.594;2023-03-03T14:02:42;31.57;;;20.67;;
17175;SDS011;8703;48.996;9.594;2023-03-03T14:05:29;41.87;;;25.77;;
17175;SDS011;8703;48.996;9.594;2023-03-03T14:08:01;38.30;;;24.87;;
17175;SDS011;8703;48.996;9.594;2023-03-03T14:10:35;31.67;;;20.77;;
17175;SDS011;8703;48.996;9.594;2023-03-03T14:13:08;30.03;;;19.97;;
17175;SDS011;8703;48.996;9.594;2023-03-03T14:15:40;28.67;;;19.90;;
17175;SDS011;8703;48.996;9.594;2023-03-03T14:18:16;30.33;;;20.87;;
17175;SDS011;8703;48.996;9.594;2023-03-03T14:20:57;34.23;;;21.67;;
17175;SDS011;8703;48.996;9.594;2023-03-03T14:23:31;32.67;;;21.17;;
17175;SDS011;8703;48.996;9.594;2023-03-03T14:26:06;31.00;;;20.80;;
17175;SDS011;8703;48.996;9.594;2023-03-03T14:28:38;30.13;;;21.53;;
17175;SDS011;8703;48.996;9.594;2023-03-03T14:31:14;35.00;;;21.43;;
17175;SDS011;8703;48.996;9.594;2023-03-03T14:33:45;34.07;;;23.70;;
17175;SDS011;8703;48.996;9.594;2023-03-03T14:36:26;32.73;;;22.53;;
17175;SDS011;8703;48.996;9.594;2023-03-03T14:38:55;32.10;;;23.08;;
17175;SDS011;8703;48.996;9.594;2023-03-03T14:41:33;33.73;;;22.30;;
17175;SDS011;8703;48.996;9.594;2023-03-03T14:44:20;32.60;;;22.13;;
17175;SDS011;8703;48.996;9.594;2023-03-03T14:49:37;33.05;;;21.40;;
17175;SDS011;8703;48.996;9.594;2023-03-03T14:52:10;30.13;;;20.77;;
17175;SDS011;8703;48.996;9.594;2023-03-03T14:54:47;30.13;;;20.80;;
17175;SDS011;8703;48.996;9.594;2023-03-03T14:57:16;26.73;;;19.23;;
17175;SDS011;8703;48.996;9.594;2023-03-03T14:59:54;30.98;;;20.02;;
17175;SDS011;8703;48.996;9.594;2023-03-03T15:02:27;29.48;;;19.92;;
17175;SDS011;8703;48.996;9.594;2023-03-03T15:05:19;30.23;;;20.88;;
17175;SDS011;8703;48.996;9.594;2023-03-03T15:07:50;28.98;;;21.05;;
17175;SDS011;8703;48.996;9.594;2023-03-03T15:10:33;32.42;;;22.50;;
17175;SDS011;8703;48.996;9.594;2023-03-03T15:15:59;32.20;;;20.70;;
17175;SDS011;8703;48.996;9.594;2023-03-03T15:18:29;29.67;;;20.55;;
17175;SDS011;8703;48.996;9.594;2023-03-03T15:20:59;29.37;;;20.40;;
17175;SDS011;8703;48.996;9.594;2023-03-03T15:23:39;30.63;;;21.10;;
17175;SDS011;8703;48.996;9.594;2023-03-03T15:26:15;30.17;;;20.37;;
17175;SDS011;8703;48.996;9.594;2023-03-03T15:28:54;32.10;;;20.87;;
17175;SDS011;8703;48.996;9.594;2023-03-03T15:31:27;34.85;;;22.73;;
17175;SDS011;8703;48.996;9.594;2023-03-03T15:34:02;30.67;;;21.23;;
17175;SDS011;8703;48.996;9.594;2023-03-03T15:36:38;30.93;;;21.63;;
17175;SDS011;8703;48.996;9.594;2023-03-03T15:39:15;30.57;;;19.83;;
17175;SDS011;8703;48.996;9.594;2023-03-03T15:41:47;35.77;;;22.53;;
17175;SDS011;8703;48.996;9.594;2023-03-03T15:44:21;37.10;;;23.63;;
17175;SDS011;8703;48.996;9.594;2023-03-03T15:46:58;28.40;;;19.70;;
17175;SDS011;8703;48.996;9.594;2023-03-03T15:49:38;28.30;;;19.50;;
17175;SDS011;8703;48.996;9.594;2023-03-03T15:52:15;30.03;;;20.33;;
17175;SDS011;8703;48.996;9.594;2023-03-03T15:54:52;34.73;;;23.47;;
17175;SDS011;8703;48.996;9.594;2023-03-03T15:57:32;29.90;;;20.20;;
17175;SDS011;8703;48.996;9.594;2023-03-03T16:00:12;29.63;;;19.23;;
17175;SDS011;8703;48.996;9.594;2023-03-03T16:02:59;27.57;;;19.10;;
17175;SDS011;8703;48.996;9.594;2023-03-03T16:05:31;32.00;;;19.90;;